Time;durP1;ratioP1;P1;durP2;ratioP2;P2;SDS_P1;SDS_P2;PMS_P1;PMS_P2;Temp;Humidity;BMP_temperature;BMP_pressure;BME280_temperature;BME280_humidity;BME280_pressure;Samples;Min_cycle;Max_cycle;Signal;HPM_P1;HPM_P2
2023/08/29 00:01:20;;;;;;;15.52;9.05;;;743.00;1740.80;;;;;;5075811;28;20107;-71
2023/08/29 00:03:46;;;;;;;19.88;8.10;;;743.10;1766.40;;;;;;5075939;28;20020;-75
2023/08/29 00:06:12;;;;;;;19.35;8.68;;;743.10;1766.40;;;;;;5075730;28;20040;-70
2023/08/29 00:08:37;;;;;;;23.17;9.45;;;743.00;1792.00;;;;;;5074441;28;20055;-71
2023/08/29 00:11:04;;;;;;;14.73;8.65;;;742.80;1817.60;;;;;;5075608;28;20119;-71
2023/08/29 00:13:30;;;;;;;17.02;8.40;;;742.80;1843.20;;;;;;5075725;28;20419;-71
2023/08/29 00:15:55;;;;;;;18.00;9.65;;;742.70;1868.80;;;;;;5075732;28;20059;-71
2023/08/29 00:18:22;;;;;;;23.13;9.00;;;742.70;1894.40;;;;;;5075268;28;20497;-72
2023/08/29 00:20:48;;;;;;;17.88;9.52;;;742.60;1894.40;;;;;;5075824;28;20029;-72
2023/08/29 00:23:14;;;;;;;19.17;9.55;;;742.50;1920.00;;;;;;5075468;28;20020;-71
2023/08/29 00:25:40;;;;;;;22.30;8.93;;;742.60;1920.00;;;;;;5075497;28;20033;-71
2023/08/29 00:28:07;;;;;;;21.63;11.10;;;742.60;1920.00;;;;;;5075679;28;20052;-71
2023/08/29 00:30:38;;;;;;;21.33;10.45;;;742.60;1945.60;;;;;;5075351;28;20017;-71
2023/08/29 00:33:05;;;;;;;20.40;10.65;;;742.40;1945.60;;;;;;5075330;28;20021;-71
2023/08/29 00:35:30;;;;;;;14.40;9.77;;;742.40;1945.60;;;;;;5075227;28;20376;-71
2023/08/29 00:37:57;;;;;;;18.05;8.80;;;742.40;1945.60;;;;;;5075106;28;20032;-72
2023/08/29 00:40:30;;;;;;;21.00;9.27;;;717.70;1920.00;;;;;;5075127;28;20017;-71
2023/08/29 00:42:58;;;;;;;16.52;9.25;;;717.70;1920.00;;;;;;5075323;28;20036;-70
2023/08/29 00:45:24;;;;;;;13.75;9.23;;;717.70;1920.00;;;;;;5074927;28;20032;-71
2023/08/29 00:47:50;;;;;;;20.63;9.95;;;717.70;1945.60;;;;;;5074910;28;20040;-70
2023/08/29 00:50:16;;;;;;;21.05;9.38;;;717.70;1945.60;;;;;;5075004;28;20020;-70
2023/08/29 00:52:42;;;;;;;22.95;9.50;;;717.70;1945.60;;;;;;5075378;28;20059;-71
2023/08/29 00:55:09;;;;;;;24.80;9.75;;;717.70;1945.60;;;;;;5074938;28;20051;-72
2023/08/29 00:57:34;;;;;;;21.40;9.48;;;717.60;1971.20;;;;;;5074665;28;20086;-71
2023/08/29 01:00:00;;;;;;;21.65;10.18;;;717.60;1971.20;;;;;;5074828;28;20457;-72
2023/08/29 01:02:26;;;;;;;18.27;9.38;;;717.50;1971.20;;;;;;5074750;28;20037;-71
2023/08/29 01:04:52;;;;;;;19.33;9.23;;;717.40;1971.20;;;;;;5074707;28;20024;-71
2023/08/29 01:07:18;;;;;;;20.23;9.55;;;717.30;1996.80;;;;;;5074528;28;20370;-71
2023/08/29 01:09:43;;;;;;;19.52;8.73;;;717.20;1996.80;;;;;;5074562;28;20457;-72
2023/08/29 01:12:16;;;;;;;22.25;10.63;;;717.30;1996.80;;;;;;5074420;28;20064;-70
2023/08/29 01:14:48;;;;;;;21.02;10.07;;;717.20;2022.40;;;;;;5074523;28;20039;-73
2023/08/29 01:17:26;;;;;;;21.25;8.55;;;717.20;2048.00;;;;;;5074306;28;20071;-71
2023/08/29 01:19:52;;;;;;;18.92;10.10;;;717.20;2048.00;;;;;;5073808;28;20053;-71
2023/08/29 01:22:55;;;;;;;26.50;10.13;;;717.20;2048.00;;;;;;5074169;28;20095;-71
2023/08/29 01:25:39;;;;;;;15.15;8.50;;;717.10;2073.60;;;;;;5074117;28;20059;-71
2023/08/29 01:28:06;;;;;;;16.58;9.57;;;717.10;2073.60;;;;;;5074099;28;20033;-72
2023/08/29 01:30:33;;;;;;;23.52;9.23;;;717.00;2099.20;;;;;;5074210;28;20024;-70
2023/08/29 01:32:59;;;;;;;13.88;8.38;;;716.90;2099.20;;;;;;5074181;28;20039;-71
2023/08/29 01:35:25;;;;;;;19.40;9.63;;;716.90;2099.20;;;;;;5074033;28;20364;-71
2023/08/29 01:37:51;;;;;;;18.15;9.38;;;716.90;2099.20;;;;;;5073999;28;20191;-71
2023/08/29 01:40:17;;;;;;;22.08;8.95;;;716.90;2124.80;;;;;;5074030;28;20126;-70
2023/08/29 01:42:43;;;;;;;17.40;9.02;;;716.80;2124.80;;;;;;5073811;28;20017;-71
2023/08/29 01:45:09;;;;;;;20.45;9.80;;;716.80;2150.40;;;;;;5073979;28;20460;-72
2023/08/29 01:47:34;;;;;;;12.65;8.70;;;716.90;2150.40;;;;;;5073607;28;20064;-71
2023/08/29 01:50:04;;;;;;;16.05;8.55;;;716.80;2150.40;;;;;;5073826;28;20056;-72
2023/08/29 01:52:31;;;;;;;18.05;9.60;;;716.90;2150.40;;;;;;5073671;28;20037;-71
2023/08/29 01:54:58;;;;;;;17.80;9.52;;;716.80;2150.40;;;;;;5073899;28;20028;-71
2023/08/29 01:57:26;;;;;;;18.63;8.93;;;716.80;2150.40;;;;;;5073534;28;20032;-73
2023/08/29 01:59:53;;;;;;;16.85;8.82;;;692.10;2150.40;;;;;;5073439;28;20021;-70
2023/08/29 02:02:20;;;;;;;19.50;8.30;;;692.10;2150.40;;;;;;5073757;28;20024;-70
2023/08/29 02:04:46;;;;;;;21.92;9.25;;;691.90;2150.40;;;;;;5073445;28;20020;-70
2023/08/29 02:07:12;;;;;;;18.27;8.68;;;692.00;2124.80;;;;;;5073520;28;20556;-71
2023/08/29 02:09:38;;;;;;;18.05;8.60;;;691.90;2124.80;;;;;;5073441;28;20099;-70
2023/08/29 02:12:04;;;;;;;17.55;7.80;;;691.90;2150.40;;;;;;5073330;28;20056;-71
2023/08/29 02:14:29;;;;;;;19.10;8.57;;;691.90;2124.80;;;;;;5073456;28;20024;-71
2023/08/29 02:16:55;;;;;;;24.73;8.63;;;691.90;2124.80;;;;;;5073262;28;20025;-70
2023/08/29 02:19:21;;;;;;;16.23;7.85;;;691.80;2150.40;;;;;;5073058;28;20068;-71
2023/08/29 02:21:46;;;;;;;19.90;7.75;;;691.90;2124.80;;;;;;5073173;28;20038;-71
2023/08/29 02:24:12;;;;;;;19.63;8.05;;;691.80;2124.80;;;;;;5073368;28;20059;-71
2023/08/29 02:26:38;;;;;;;15.70;7.38;;;691.90;2124.80;;;;;;5073091;28;20029;-71
2023/08/29 02:29:04;;;;;;;21.08;7.45;;;691.90;2124.80;;;;;;5073540;28;20388;-71
2023/08/29 02:31:29;;;;;;;18.60;7.53;;;691.80;2124.80;;;;;;5072383;28;20024;-71
2023/08/29 02:33:55;;;;;;;14.73;7.50;;;691.90;2124.80;;;;;;5073102;28;20028;-71
2023/08/29 02:36:21;;;;;;;14.13;7.07;;;691.90;2124.80;;;;;;5073215;28;20031;-71
2023/08/29 02:38:46;;;;;;;18.95;8.38;;;691.90;2124.80;;;;;;5073316;28;20025;-71
2023/08/29 02:41:12;;;;;;;15.00;7.32;;;691.90;2124.80;;;;;;5073251;28;20032;-71
2023/08/29 02:43:38;;;;;;;28.80;8.02;;;691.90;2124.80;;;;;;5088403;28;20437;-71
2023/08/29 02:46:04;;;;;;;13.40;7.22;;;691.90;2150.40;;;;;;5073035;28;20033;-71
2023/08/29 02:48:30;;;;;;;15.70;7.45;;;691.90;2124.80;;;;;;5072796;28;20032;-72
2023/08/29 02:50:55;;;;;;;15.52;8.23;;;691.80;2150.40;;;;;;5073323;28;20039;-71
2023/08/29 02:53:21;;;;;;;19.38;7.35;;;691.70;2176.00;;;;;;5072904;28;20032;-71
2023/08/29 02:55:51;;;;;;;15.20;8.13;;;691.80;2150.40;;;;;;5072878;28;20032;-71
2023/08/29 02:58:17;;;;;;;17.50;7.60;;;691.80;2150.40;;;;;;5073327;28;20388;-72
2023/08/29 03:00:43;;;;;;;18.67;8.77;;;691.80;2150.40;;;;;;5072821;28;20028;-71
2023/08/29 03:03:09;;;;;;;24.92;7.53;;;691.70;2176.00;;;;;;5072504;28;20039;-71
2023/08/29 03:05:35;;;;;;;15.98;8.45;;;691.60;2201.60;;;;;;5072177;28;20497;-72
2023/08/29 03:08:04;;;;;;;21.65;8.35;;;691.50;2252.80;;;;;;5072274;28;20049;-71
2023/08/29 03:10:31;;;;;;;21.75;8.15;;;691.60;2227.20;;;;;;5072546;28;20024;-72
2023/08/29 03:12:56;;;;;;;16.55;7.57;;;691.60;2201.60;;;;;;5072178;28;20082;-71
2023/08/29 03:15:22;;;;;;;16.83;7.80;;;691.70;2201.60;;;;;;5071053;28;20021;-71
2023/08/29 03:17:48;;;;;;;19.55;8.05;;;691.70;2201.60;;;;;;5071974;28;20500;-71
2023/08/29 03:20:15;;;;;;;25.67;8.85;;;691.60;2227.20;;;;;;5071999;28;20127;-72
2023/08/29 03:22:41;;;;;;;19.75;7.85;;;691.50;2252.80;;;;;;5072045;28;20024;-70
2023/08/29 03:25:07;;;;;;;17.83;7.20;;;691.50;2252.80;;;;;;5071962;28;20021;-71
2023/08/29 03:27:33;;;;;;;12.30;7.43;;;691.60;2227.20;;;;;;5071918;28;20103;-70
2023/08/29 03:29:58;;;;;;;12.98;7.00;;;691.50;2278.40;;;;;;5072064;28;20492;-73
2023/08/29 03:32:24;;;;;;;16.67;7.60;;;691.50;2278.40;;;;;;5071802;28;20031;-72
2023/08/29 03:34:54;;;;;;;24.20;8.30;;;691.60;2252.80;;;;;;5071914;28;20020;-72
2023/08/29 03:37:20;;;;;;;18.40;9.43;;;691.60;2278.40;;;;;;5072057;28;20385;-72
2023/08/29 03:39:45;;;;;;;21.45;8.27;;;691.50;2329.60;;;;;;5071983;28;20024;-71
2023/08/29 03:42:11;;;;;;;18.00;7.95;;;691.60;2304.00;;;;;;5073491;28;20024;-71
2023/08/29 03:44:37;;;;;;;15.65;8.02;;;691.40;2329.60;;;;;;5075665;28;20066;-72
2023/08/29 03:47:03;;;;;;;17.95;7.90;;;691.40;2355.20;;;;;;5075362;28;20040;-71
2023/08/29 03:49:29;;;;;;;16.20;6.53;;;691.20;2380.80;;;;;;5075404;28;20539;-71
2023/08/29 03:51:55;;;;;;;14.07;7.28;;;691.20;2432.00;;;;;;5075553;28;20048;-71
2023/08/29 03:54:21;;;;;;;14.80;8.05;;;691.30;2406.40;;;;;;5075537;28;20021;-71
2023/08/29 03:56:48;;;;;;;23.90;8.32;;;691.20;2406.40;;;;;;5075501;28;20530;-71
2023/08/29 03:59:14;;;;;;;14.35;8.20;;;691.40;2355.20;;;;;;5075258;28;20548;-71
2023/08/29 04:01:40;;;;;;;15.68;8.38;;;691.40;2329.60;;;;;;5075327;28;20472;-71
2023/08/29 04:04:06;;;;;;;14.13;6.97;;;691.40;2329.60;;;;;;5075055;28;20021;-72
2023/08/29 04:06:35;;;;;;;18.95;8.82;;;691.30;2355.20;;;;;;5075194;28;20060;-71
2023/08/29 04:09:01;;;;;;;17.50;9.32;;;666.50;2380.80;;;;;;5075138;28;20028;-71
2023/08/29 04:11:26;;;;;;;15.30;7.88;;;691.20;2355.20;;;;;;5075053;28;20017;-71
2023/08/29 04:13:52;;;;;;;17.35;9.13;;;666.40;2380.80;;;;;;5075047;28;20438;-71
2023/08/29 04:16:18;;;;;;;17.02;8.52;;;666.50;2380.80;;;;;;5075041;28;20021;-71
2023/08/29 04:18:45;;;;;;;17.80;7.43;;;691.20;2355.20;;;;;;5074462;28;20094;-72
2023/08/29 04:21:10;;;;;;;13.15;7.85;;;666.50;2380.80;;;;;;5074919;28;20112;-71
2023/08/29 04:23:36;;;;;;;22.52;8.63;;;666.50;2380.80;;;;;;5074925;28;20112;-71
2023/08/29 04:26:05;;;;;;;15.88;7.95;;;666.50;2406.40;;;;;;5069646;28;20028;-70
2023/08/29 04:28:31;;;;;;;18.15;8.75;;;666.40;2432.00;;;;;;5072023;28;20100;-70
2023/08/29 04:31:07;;;;;;;24.05;9.23;;;666.40;2432.00;;;;;;5078966;28;20112;-71
2023/08/29 04:33:32;;;;;;;21.48;8.77;;;666.40;2432.00;;;;;;5063185;28;20028;-71
2023/08/29 04:35:58;;;;;;;20.25;9.45;;;666.20;2432.00;;;;;;5070880;28;20389;-70
2023/08/29 04:38:24;;;;;;;16.05;9.07;;;666.10;2432.00;;;;;;5067622;28;20469;-70
2023/08/29 04:40:53;;;;;;;19.67;9.20;;;666.20;2432.00;;;;;;5068045;28;20033;-70
2023/08/29 04:43:19;;;;;;;21.08;9.45;;;666.20;2432.00;;;;;;5067055;28;20053;-70
2023/08/29 04:45:45;;;;;;;28.17;10.20;;;666.20;2432.00;;;;;;5070960;28;20094;-70
2023/08/29 04:48:10;;;;;;;16.17;9.55;;;666.10;2432.00;;;;;;5070796;28;20028;-71
2023/08/29 04:50:36;;;;;;;24.00;11.27;;;666.10;2432.00;;;;;;5067442;28;20024;-70
2023/08/29 04:53:03;;;;;;;35.00;10.98;;;666.20;2432.00;;;;;;5073806;28;20157;-70
2023/08/29 04:55:29;;;;;;;146.93;80.70;;;666.10;2432.00;;;;;;5066464;28;20535;-71
2023/08/29 04:57:56;;;;;;;41.15;21.60;;;665.90;2432.00;;;;;;5071014;28;20041;-73
2023/08/29 05:00:22;;;;;;;21.27;9.38;;;665.70;2432.00;;;;;;5074032;28;20021;-72
2023/08/29 05:02:48;;;;;;;14.32;8.23;;;665.70;2432.00;;;;;;5064471;28;20016;-73
2023/08/29 05:05:14;;;;;;;12.07;8.63;;;640.90;2432.00;;;;;;5071500;28;20029;-73
2023/08/29 05:07:40;;;;;;;17.70;8.93;;;640.90;2432.00;;;;;;5065548;28;20044;-74
2023/08/29 05:10:06;;;;;;;18.85;8.57;;;640.80;2432.00;;;;;;5073760;28;20024;-73
2023/08/29 05:12:32;;;;;;;22.33;8.55;;;640.90;2432.00;;;;;;5073451;28;20021;-74
2023/08/29 05:14:58;;;;;;;13.40;8.85;;;640.90;2432.00;;;;;;5063732;28;20047;-72
2023/08/29 05:17:23;;;;;;;16.23;10.27;;;640.90;2432.00;;;;;;5070792;28;20063;-73
2023/08/29 05:19:51;;;;;;;18.80;9.80;;;640.90;2432.00;;;;;;5064718;28;20063;-73
2023/08/29 05:22:16;;;;;;;15.23;9.13;;;665.60;2432.00;;;;;;5063223;28;20028;-72
2023/08/29 05:24:42;;;;;;;14.23;8.43;;;665.80;2432.00;;;;;;5068496;28;20111;-72
2023/08/29 05:27:08;;;;;;;15.25;8.70;;;665.90;2432.00;;;;;;5072870;28;20452;-72
2023/08/29 05:29:33;;;;;;;16.63;8.80;;;666.00;2432.00;;;;;;5067639;28;20024;-73
2023/08/29 05:31:59;;;;;;;13.77;8.90;;;666.00;2432.00;;;;;;5064756;28;20033;-70
2023/08/29 05:34:25;;;;;;;16.33;8.60;;;666.10;2432.00;;;;;;5067519;28;20024;-70
2023/08/29 05:36:51;;;;;;;10.98;8.63;;;666.10;2432.00;;;;;;5068896;28;20048;-71
2023/08/29 05:39:17;;;;;;;16.35;9.15;;;666.20;2432.00;;;;;;5060845;28;20025;-71
2023/08/29 05:41:42;;;;;;;15.32;8.70;;;666.30;2432.00;;;;;;5071451;28;20377;-71
2023/08/29 05:44:08;;;;;;;14.02;9.50;;;666.30;2432.00;;;;;;5069995;28;20021;-71
2023/08/29 05:46:34;;;;;;;17.17;9.10;;;666.40;2432.00;;;;;;5070288;28;20480;-71
2023/08/29 05:49:00;;;;;;;14.32;9.20;;;666.50;2432.00;;;;;;5066155;28;20074;-71
2023/08/29 05:51:26;;;;;;;18.05;12.13;;;666.40;2432.00;;;;;;5064251;28;20082;-72
2023/08/29 05:53:53;;;;;;;22.73;11.63;;;666.50;2432.00;;;;;;5068724;28;20059;-72
2023/08/29 05:56:19;;;;;;;18.58;9.75;;;666.50;2432.00;;;;;;5068131;28;20022;-71
2023/08/29 05:58:46;;;;;;;18.10;8.88;;;666.50;2432.00;;;;;;5064481;28;20028;-72
2023/08/29 06:01:11;;;;;;;19.83;8.70;;;666.40;2432.00;;;;;;5072943;28;20044;-71
2023/08/29 06:03:37;;;;;;;17.15;8.07;;;666.10;2432.00;;;;;;5063691;28;20097;-71
2023/08/29 06:06:03;;;;;;;21.50;8.93;;;666.20;2432.00;;;;;;5068468;28;20017;-70
2023/08/29 06:08:33;;;;;;;16.65;9.13;;;666.10;2432.00;;;;;;5068195;28;20029;-72
2023/08/29 06:11:00;;;;;;;14.10;8.88;;;666.00;2432.00;;;;;;5068426;28;20056;-72
2023/08/29 06:13:25;;;;;;;25.45;11.15;;;665.90;2432.00;;;;;;5068220;28;20054;-71
2023/08/29 06:15:51;;;;;;;26.90;11.45;;;640.90;2432.00;;;;;;5066310;28;20456;-71
2023/08/29 06:18:17;;;;;;;22.20;10.23;;;640.70;2432.00;;;;;;5065420;28;20039;-71
2023/08/29 06:20:42;;;;;;;23.25;10.35;;;640.70;2432.00;;;;;;5070139;28;20492;-72
2023/08/29 06:23:08;;;;;;;20.13;10.23;;;640.60;2432.00;;;;;;5064549;28;20028;-73
2023/08/29 06:25:34;;;;;;;30.27;11.45;;;640.70;2432.00;;;;;;5070084;28;20365;-71
2023/08/29 06:27:59;;;;;;;20.60;9.45;;;640.60;2432.00;;;;;;5066802;28;20074;-71
2023/08/29 06:30:26;;;;;;;16.58;10.45;;;640.60;2432.00;;;;;;5071020;28;20077;-71
2023/08/29 06:32:51;;;;;;;20.83;9.35;;;640.70;2432.00;;;;;;5071281;28;20354;-72
2023/08/29 06:35:17;;;;;;;20.88;9.18;;;640.80;2432.00;;;;;;5067744;28;20032;-70
2023/08/29 06:37:43;;;;;;;17.52;9.57;;;640.70;2432.00;;;;;;5072692;28;20078;-71
2023/08/29 06:40:10;;;;;;;14.95;8.63;;;640.80;2432.00;;;;;;5067176;28;20021;-71
2023/08/29 06:42:36;;;;;;;18.13;9.82;;;640.90;2432.00;;;;;;5068320;28;20522;-70
2023/08/29 06:45:03;;;;;;;14.75;9.43;;;665.60;2432.00;;;;;;5067573;28;20508;-71
2023/08/29 06:47:29;;;;;;;19.08;9.27;;;665.90;2432.00;;;;;;5063181;28;20036;-71
2023/08/29 06:49:55;;;;;;;15.52;9.73;;;666.00;2432.00;;;;;;5071988;28;20021;-71
2023/08/29 06:52:21;;;;;;;27.58;9.68;;;666.30;2432.00;;;;;;5065897;28;20036;-71
2023/08/29 06:54:47;;;;;;;18.83;9.05;;;666.30;2432.00;;;;;;5065359;28;20042;-70
2023/08/29 06:57:13;;;;;;;14.52;8.27;;;666.50;2432.00;;;;;;5072328;28;20029;-71
2023/08/29 06:59:39;;;;;;;15.77;8.65;;;691.30;2432.00;;;;;;5063803;28;20025;-73
2023/08/29 07:02:05;;;;;;;17.45;9.35;;;691.30;2432.00;;;;;;5067658;28;20533;-73
2023/08/29 07:04:31;;;;;;;15.63;9.00;;;691.40;2432.00;;;;;;5075763;28;20112;-73
2023/08/29 07:06:56;;;;;;;18.67;8.70;;;691.70;2432.00;;;;;;5071088;28;20040;-71
2023/08/29 07:09:22;;;;;;;17.25;8.77;;;691.60;2432.00;;;;;;5067652;28;20096;-72
2023/08/29 07:11:48;;;;;;;11.75;7.68;;;691.80;2432.00;;;;;;5070073;28;20059;-72
2023/08/29 07:14:13;;;;;;;20.85;8.35;;;691.80;2432.00;;;;;;5067241;28;20024;-73
2023/08/29 07:16:39;;;;;;;14.55;6.82;;;692.00;2432.00;;;;;;5065969;28;20028;-74
2023/08/29 07:19:05;;;;;;;13.45;5.78;;;692.00;2432.00;;;;;;5073999;28;20408;-73
2023/08/29 07:21:31;;;;;;;9.35;5.22;;;691.90;2432.00;;;;;;5073689;28;20381;-72
2023/08/29 07:23:57;;;;;;;12.55;5.25;;;691.90;2304.00;;;;;;5074614;28;20032;-73
2023/08/29 07:26:23;;;;;;;9.15;4.35;;;691.90;2278.40;;;;;;5076364;28;20028;-72
2023/08/29 07:28:48;;;;;;;15.15;5.07;;;691.80;2227.20;;;;;;5072727;28;20035;-73
2023/08/29 07:31:14;;;;;;;12.75;4.90;;;691.90;2201.60;;;;;;5064567;28;20060;-73
2023/08/29 07:33:39;;;;;;;10.38;4.82;;;691.90;2176.00;;;;;;5072808;28;20029;-74
2023/08/29 07:36:05;;;;;;;9.07;4.63;;;691.90;2150.40;;;;;;5067566;28;20024;-74
2023/08/29 07:38:31;;;;;;;9.95;3.83;;;691.90;2124.80;;;;;;5071375;28;20464;-74
2023/08/29 07:40:57;;;;;;;11.77;4.70;;;691.90;2124.80;;;;;;5068181;28;20025;-72
2023/08/29 07:43:23;;;;;;;12.63;4.93;;;691.90;2150.40;;;;;;5068981;28;20017;-73
2023/08/29 07:45:52;;;;;;;6.20;3.50;;;691.90;2176.00;;;;;;5072700;28;20075;-73
2023/08/29 07:48:19;;;;;;;5.65;3.58;;;691.90;2150.40;;;;;;5064908;28;20040;-72
2023/08/29 07:50:45;;;;;;;7.75;3.72;;;691.80;2150.40;;;;;;5068545;28;20068;-72
2023/08/29 07:53:11;;;;;;;17.27;8.55;;;691.70;2124.80;;;;;;5071476;28;20017;-73
2023/08/29 07:55:37;;;;;;;41.05;23.27;;;691.70;2150.40;;;;;;5074103;28;20085;-73
2023/08/29 07:58:03;;;;;;;102.28;58.03;;;691.80;2150.40;;;;;;5075292;28;20021;-72
2023/08/29 08:00:29;;;;;;;58.42;30.95;;;691.80;2099.20;;;;;;5070125;28;20028;-71
2023/08/29 08:02:55;;;;;;;30.45;16.50;;;691.90;2201.60;;;;;;5067901;28;20488;-72
2023/08/29 08:05:21;;;;;;;79.35;41.72;;;691.80;2124.80;;;;;;5069112;28;20021;-74
2023/08/29 08:07:47;;;;;;;31.60;15.50;;;691.90;2227.20;;;;;;5070546;28;20043;-73
2023/08/29 08:10:15;;;;;;;13.80;4.75;;;691.90;2252.80;;;;;;5070503;28;20023;-73
2023/08/29 08:12:41;;;;;;;8.50;3.97;;;691.80;2252.80;;;;;;5070659;28;20029;-73
2023/08/29 08:15:08;;;;;;;7.38;3.78;;;691.90;2278.40;;;;;;5062036;28;20029;-77
2023/08/29 08:17:34;;;;;;;8.20;3.67;;;692.00;2201.60;;;;;;5070312;28;20025;-72
2023/08/29 08:20:05;;;;;;;7.32;3.42;;;692.00;2201.60;;;;;;5071667;28;20053;-72
2023/08/29 08:22:30;;;;;;;5.25;3.88;;;692.00;2124.80;;;;;;5072130;28;20033;-71
2023/08/29 08:24:56;;;;;;;5.95;3.92;;;692.00;2176.00;;;;;;5063374;28;20028;-74
2023/08/29 08:27:22;;;;;;;7.75;3.33;;;692.00;2150.40;;;;;;5069773;28;20440;-73
2023/08/29 08:29:47;;;;;;;11.27;3.75;;;692.00;2150.40;;;;;;5069104;28;20074;-73
2023/08/29 08:32:13;;;;;;;8.82;3.78;;;692.10;2227.20;;;;;;5065585;28;20032;-73
2023/08/29 08:34:39;;;;;;;10.82;5.25;;;692.10;2201.60;;;;;;5070873;28;20108;-73
2023/08/29 08:37:05;;;;;;;9.73;3.85;;;692.10;2176.00;;;;;;5067517;28;20470;-72
2023/08/29 08:39:31;;;;;;;11.13;4.35;;;716.80;2124.80;;;;;;5065946;28;20021;-73
2023/08/29 08:41:57;;;;;;;14.43;4.82;;;716.90;2124.80;;;;;;5069204;28;20024;-73
2023/08/29 08:44:25;;;;;;;6.65;3.00;;;717.00;2227.20;;;;;;5069251;28;20031;-73
2023/08/29 08:46:52;;;;;;;9.82;3.55;;;717.20;2150.40;;;;;;5073876;28;20033;-73
2023/08/29 08:49:18;;;;;;;8.45;3.63;;;717.50;2022.40;;;;;;5063829;28;20036;-75
2023/08/29 08:51:46;;;;;;;11.77;3.25;;;717.60;2048.00;;;;;;5067152;28;20103;-74
2023/08/29 08:54:13;;;;;;;6.93;3.35;;;742.40;2073.60;;;;;;5067111;28;20029;-73
2023/08/29 08:56:40;;;;;;;7.80;3.78;;;742.50;2048.00;;;;;;5069620;28;20051;-74
2023/08/29 08:59:06;;;;;;;7.38;3.20;;;742.40;1996.80;;;;;;5064216;28;20104;-72
2023/08/29 09:01:31;;;;;;;11.15;4.53;;;742.60;1894.40;;;;;;5069328;28;20512;-74
2023/08/29 09:03:57;;;;;;;8.15;4.03;;;742.50;1945.60;;;;;;5071614;28;20020;-74
2023/08/29 09:06:23;;;;;;;6.05;3.05;;;742.50;1971.20;;;;;;5065156;28;20036;-73
2023/08/29 09:08:48;;;;;;;5.57;3.42;;;717.70;1868.80;;;;;;5068864;28;20365;-74
2023/08/29 09:11:18;;;;;;;9.48;2.90;;;717.40;1996.80;;;;;;5065874;28;20016;-74
2023/08/29 09:13:48;;;;;;;9.73;2.95;;;717.10;1945.60;;;;;;5064549;28;20017;-73
2023/08/29 09:16:14;;;;;;;6.75;3.22;;;716.90;1971.20;;;;;;5067029;28;20021;-74
2023/08/29 09:18:43;;;;;;;6.20;2.30;;;716.80;1996.80;;;;;;5071191;28;20094;-74
2023/08/29 09:21:24;;;;;;;6.63;2.53;;;716.80;1971.20;;;;;;5062463;28;20025;-73
2023/08/29 09:23:50;;;;;;;7.45;2.80;;;716.90;1971.20;;;;;;5070572;28;20024;-74
2023/08/29 09:26:16;;;;;;;5.20;2.58;;;717.00;1971.20;;;;;;5063748;28;20033;-74
2023/08/29 09:28:42;;;;;;;8.13;2.78;;;717.30;1945.60;;;;;;5073293;28;20483;-74
2023/08/29 09:31:10;;;;;;;4.13;2.45;;;717.60;1945.60;;;;;;5066598;28;20025;-74
2023/08/29 09:33:38;;;;;;;4.90;2.67;;;742.40;1894.40;;;;;;5070948;28;20376;-74
2023/08/29 09:36:05;;;;;;;4.47;2.28;;;742.50;1894.40;;;;;;5065428;28;20012;-74
2023/08/29 09:38:35;;;;;;;6.15;2.38;;;742.50;1817.60;;;;;;5072666;28;20060;-74
2023/08/29 09:41:01;;;;;;;4.53;2.42;;;742.60;1817.60;;;;;;5064396;28;20021;-74
2023/08/29 09:43:28;;;;;;;7.40;2.25;;;742.70;1817.60;;;;;;5066905;28;20059;-74
2023/08/29 09:45:55;;;;;;;5.38;1.95;;;743.10;1792.00;;;;;;5072807;28;20158;-74
2023/08/29 09:48:21;;;;;;;4.20;2.10;;;743.30;1664.00;;;;;;5066152;28;20678;-74
2023/08/29 09:50:49;;;;;;;4.20;2.20;;;743.30;1715.20;;;;;;5069480;28;20131;-73
2023/08/29 09:53:19;;;;;;;6.22;2.80;;;743.30;1664.00;;;;;;5061911;28;20020;-72
2023/08/29 09:55:55;;;;;;;4.70;2.50;;;768.10;1740.80;;;;;;5070679;28;20099;-73
2023/08/29 09:58:24;;;;;;;6.10;3.70;;;768.10;1689.60;;;;;;5063283;28;20097;-73
2023/08/29 10:00:51;;;;;;;9.10;3.60;;;743.10;1689.60;;;;;;5063912;28;20048;-73
2023/08/29 10:03:18;;;;;;;7.25;2.60;;;768.10;1689.60;;;;;;5069778;28;20491;-74
2023/08/29 10:05:45;;;;;;;11.52;6.55;;;743.30;1664.00;;;;;;5065730;28;20042;-71
2023/08/29 10:08:30;;;;;;;5.28;3.22;;;743.10;1689.60;;;;;;5068123;28;20024;-73
2023/08/29 10:10:59;;;;;;;3.88;2.03;;;743.00;1689.60;;;;;;5064958;28;20024;-72
2023/08/29 10:13:25;;;;;;;5.10;1.95;;;742.90;1638.40;;;;;;5059428;28;20028;-72
2023/08/29 10:15:52;;;;;;;6.38;2.42;;;742.90;1664.00;;;;;;5063809;28;20087;-73
2023/08/29 10:18:18;;;;;;;4.30;2.00;;;742.90;1664.00;;;;;;5063862;28;20031;-74
2023/08/29 10:20:45;;;;;;;6.32;2.40;;;742.90;1689.60;;;;;;5063346;28;20522;-74
2023/08/29 10:23:15;;;;;;;3.30;1.92;;;742.90;1638.40;;;;;;5064751;28;20523;-73
2023/08/29 10:25:41;;;;;;;7.97;2.45;;;743.00;1689.60;;;;;;5062052;28;20064;-73
2023/08/29 10:28:10;;;;;;;6.45;2.38;;;743.10;1689.60;;;;;;5065224;28;20036;-72
2023/08/29 10:30:40;;;;;;;8.10;3.17;;;743.10;1664.00;;;;;;5069913;28;20526;-75
2023/08/29 10:33:07;;;;;;;6.18;3.30;;;743.10;1664.00;;;;;;5064335;28;20020;-73
2023/08/29 10:35:34;;;;;;;9.13;3.38;;;743.10;1664.00;;;;;;5071133;28;20465;-73
2023/08/29 10:38:10;;;;;;;7.85;2.55;;;743.10;1740.80;;;;;;5066055;28;20037;-73
2023/08/29 10:40:36;;;;;;;8.38;3.22;;;743.00;1664.00;;;;;;5064522;28;20024;-72
2023/08/29 10:43:03;;;;;;;5.65;2.50;;;743.00;1715.20;;;;;;5071554;28;20028;-72
2023/08/29 10:45:57;;;;;;;8.40;2.72;;;743.00;1715.20;;;;;;5068236;28;20021;-72
2023/08/29 10:48:43;;;;;;;4.45;2.40;;;743.00;1689.60;;;;;;5062684;28;20091;-72
2023/08/29 10:51:10;;;;;;;6.68;3.25;;;743.00;1689.60;;;;;;5067008;28;20387;-72
2023/08/29 10:53:48;;;;;;;10.10;4.43;;;743.10;1689.60;;;;;;5067742;28;20051;-72
2023/08/29 10:56:17;;;;;;;7.03;3.00;;;743.30;1689.60;;;;;;5067780;28;20016;-72
2023/08/29 10:58:44;;;;;;;11.05;3.92;;;743.30;1740.80;;;;;;5069276;28;20017;-74
2023/08/29 11:01:28;;;;;;;7.00;4.03;;;743.30;1817.60;;;;;;5066518;28;20043;-72
2023/08/29 11:04:03;;;;;;;9.65;4.80;;;768.10;1792.00;;;;;;5067052;28;20028;-74
2023/08/29 11:06:53;;;;;;;17.90;4.87;;;768.10;1817.60;;;;;;5065306;28;20040;-74
2023/08/29 11:09:21;;;;;;;6.97;4.35;;;768.40;1792.00;;;;;;5065420;28;20273;-73
2023/08/29 11:12:14;;;;;;;11.90;4.82;;;768.60;1740.80;;;;;;5067735;28;20033;-73
2023/08/29 11:14:53;;;;;;;10.38;5.32;;;768.80;1740.80;;;;;;5062808;28;20079;-73
2023/08/29 11:17:25;;;;;;;9.95;5.63;;;;;;;;;;5066090;28;20550;-72
2023/08/29 11:19:56;;;;;;;9.25;5.72;;;794.00;1766.40;;;;;;5070513;28;20044;-71
2023/08/29 11:22:25;;;;;;;11.65;6.40;;;793.90;1740.80;;;;;;5065138;28;20068;-71
2023/08/29 11:24:55;;;;;;;10.07;5.78;;;793.90;1740.80;;;;;;5066767;28;20357;-72
2023/08/29 11:27:28;;;;;;;10.75;5.32;;;793.80;1740.80;;;;;;5064783;28;20071;-71
2023/08/29 11:29:55;;;;;;;14.50;6.50;;;793.70;1740.80;;;;;;5068456;28;20017;-72
2023/08/29 11:32:21;;;;;;;8.63;5.40;;;768.90;1740.80;;;;;;5062583;28;20024;-73
2023/08/29 11:34:53;;;;;;;9.25;4.78;;;768.90;1740.80;;;;;;5067055;28;20103;-73
2023/08/29 11:37:21;;;;;;;10.63;5.60;;;768.80;1740.80;;;;;;5066773;28;20024;-71
2023/08/29 11:39:54;;;;;;;10.38;6.03;;;768.60;1715.20;;;;;;5062016;28;20016;-72
2023/08/29 11:42:21;;;;;;;12.57;5.05;;;768.90;1715.20;;;;;;5069812;28;20070;-71
2023/08/29 11:44:47;;;;;;;9.00;4.72;;;768.90;1740.80;;;;;;5061891;28;20086;-72
2023/08/29 11:47:14;;;;;;;12.60;5.65;;;793.60;1740.80;;;;;;5066516;28;20041;-73
2023/08/29 11:49:41;;;;;;;13.32;5.70;;;768.90;1664.00;;;;;;5060616;28;20033;-72
2023/08/29 11:52:08;;;;;;;11.60;5.45;;;768.80;1715.20;;;;;;5064838;28;20020;-71
2023/08/29 11:54:46;;;;;;;8.43;4.85;;;768.90;1740.80;;;;;;5067903;28;20021;-72
2023/08/29 11:57:13;;;;;;;15.32;5.68;;;768.90;1689.60;;;;;;5064829;28;20103;-73
2023/08/29 11:59:43;;;;;;;11.30;5.70;;;768.90;1689.60;;;;;;5063577;28;20025;-72
2023/08/29 12:02:16;;;;;;;8.52;5.40;;;793.70;1689.60;;;;;;5066407;28;20029;-72
2023/08/29 12:04:46;;;;;;;13.70;6.15;;;794.00;1689.60;;;;;;5068656;28;20024;-73
2023/08/29 12:07:12;;;;;;;9.10;5.88;;;794.00;1715.20;;;;;;5071242;28;20033;-72
2023/08/29 12:09:43;;;;;;;18.17;6.05;;;794.20;1664.00;;;;;;5069577;28;20089;-72
2023/08/29 12:12:26;;;;;;;11.95;5.35;;;794.00;1664.00;;;;;;5070556;28;20059;-72